sensor_id;sensor_type;location;lat;lon;timestamp;temperature;humidity
32348;DHT22;18821;44.800;10.326;2022-12-20T00:01:24;6.30;99.90
32348;DHT22;18821;44.800;10.326;2022-12-20T00:03:51;6.20;99.90
32348;DHT22;18821;44.800;10.326;2022-12-20T00:06:17;6.00;99.90
32348;DHT22;18821;44.800;10.326;2022-12-20T00:08:44;6.00;99.90
32348;DHT22;18821;44.800;10.326;2022-12-20T00:11:10;6.10;99.90
32348;DHT22;18821;44.800;10.326;2022-12-20T00:13:37;6.00;99.90
32348;DHT22;18821;44.800;10.326;2022-12-20T00:18:32;5.90;99.90
32348;DHT22;18821;44.800;10.326;2022-12-20T00:20:59;5.80;99.90
32348;DHT22;18821;44.800;10.326;2022-12-20T00:23:25;5.80;99.90
32348;DHT22;18821;44.800;10.326;2022-12-20T00:25:51;5.80;99.90
32348;DHT22;18821;44.800;10.326;2022-12-20T00:28:17;5.80;99.90
32348;DHT22;18821;44.800;10.326;2022-12-20T00:30:43;5.70;99.90
32348;DHT22;18821;44.800;10.326;2022-12-20T00:33:09;5.80;99.90
32348;DHT22;18821;44.800;10.326;2022-12-20T00:35:41;5.80;99.90
32348;DHT22;18821;44.800;10.326;2022-12-20T00:38:08;5.80;99.90
32348;DHT22;18821;44.800;10.326;2022-12-20T00:40:34;5.70;99.90
32348;DHT22;18821;44.800;10.326;2022-12-20T00:43:00;5.80;99.90
32348;DHT22;18821;44.800;10.326;2022-12-20T00:45:25;5.80;99.90
32348;DHT22;18821;44.800;10.326;2022-12-20T00:47:51;5.80;99.90
32348;DHT22;18821;44.800;10.326;2022-12-20T00:50:17;5.80;99.90
32348;DHT22;18821;44.800;10.326;2022-12-20T00:52:43;5.80;99.90
32348;DHT22;18821;44.800;10.326;2022-12-20T00:55:09;5.80;99.90
32348;DHT22;18821;44.800;10.326;2022-12-20T00:57:35;5.80;99.90
32348;DHT22;18821;44.800;10.326;2022-12-20T01:00:00;5.80;99.90
32348;DHT22;18821;44.800;10.326;2022-12-20T01:02:26;5.80;99.90
32348;DHT22;18821;44.800;10.326;2022-12-20T01:04:52;5.90;99.90
32348;DHT22;18821;44.800;10.326;2022-12-20T01:07:20;5.90;99.90
32348;DHT22;18821;44.800;10.326;2022-12-20T01:09:50;5.90;99.90
32348;DHT22;18821;44.800;10.326;2022-12-20T01:12:16;5.80;99.90
32348;DHT22;18821;44.800;10.326;2022-12-20T01:14:42;5.80;99.90
32348;DHT22;18821;44.800;10.326;2022-12-20T01:17:09;5.80;99.90
32348;DHT22;18821;44.800;10.326;2022-12-20T01:19:35;5.80;99.90
32348;DHT22;18821;44.800;10.326;2022-12-20T01:22:01;5.90;99.90
32348;DHT22;18821;44.800;10.326;2022-12-20T01:24:27;5.90;99.90
32348;DHT22;18821;44.800;10.326;2022-12-20T01:26:53;6.00;99.90
32348;DHT22;18821;44.800;10.326;2022-12-20T01:29:18;6.00;99.90
32348;DHT22;18821;44.800;10.326;2022-12-20T01:31:44;6.00;99.90
32348;DHT22;18821;44.800;10.326;2022-12-20T01:34:11;6.00;99.90
32348;DHT22;18821;44.800;10.326;2022-12-20T01:36:37;5.90;99.90
32348;DHT22;18821;44.800;10.326;2022-12-20T01:39:14;5.70;99.90
32348;DHT22;18821;44.800;10.326;2022-12-20T01:41:42;5.70;99.90
32348;DHT22;18821;44.800;10.326;2022-12-20T01:46:44;5.70;99.90
32348;DHT22;18821;44.800;10.326;2022-12-20T01:49:15;5.70;99.90
32348;DHT22;18821;44.800;10.326;2022-12-20T01:52:06;5.70;99.90
32348;DHT22;18821;44.800;10.326;2022-12-20T01:54:47;5.70;99.90
32348;DHT22;18821;44.800;10.326;2022-12-20T01:57:33;5.70;99.90
32348;DHT22;18821;44.800;10.326;2022-12-20T02:00:02;5.70;99.90
32348;DHT22;18821;44.800;10.326;2022-12-20T02:02:40;5.70;99.90
32348;DHT22;18821;44.800;10.326;2022-12-20T02:05:07;5.70;99.90
32348;DHT22;18821;44.800;10.326;2022-12-20T02:07:34;5.70;99.90
32348;DHT22;18821;44.800;10.326;2022-12-20T02:10:03;5.70;99.90
32348;DHT22;18821;44.800;10.326;2022-12-20T02:12:44;5.70;99.90
32348;DHT22;18821;44.800;10.326;2022-12-20T02:20:55;5.80;99.90
32348;DHT22;18821;44.800;10.326;2022-12-20T02:31:54;6.00;99.90
32348;DHT22;18821;44.800;10.326;2022-12-20T02:34:18;6.00;99.90
32348;DHT22;18821;44.800;10.326;2022-12-20T02:36:47;6.00;99.90
32348;DHT22;18821;44.800;10.326;2022-12-20T02:39:13;6.00;99.90
32348;DHT22;18821;44.800;10.326;2022-12-20T02:41:46;6.10;99.90
32348;DHT22;18821;44.800;10.326;2022-12-20T02:44:18;6.10;99.90
32348;DHT22;18821;44.800;10.326;2022-12-20T02:47:05;6.00;99.90
32348;DHT22;18821;44.800;10.326;2022-12-20T02:49:36;6.10;99.90
32348;DHT22;18821;44.800;10.326;2022-12-20T02:52:07;6.10;99.90
32348;DHT22;18821;44.800;10.326;2022-12-20T02:54:34;6.00;99.90
32348;DHT22;18821;44.800;10.326;2022-12-20T02:57:15;6.00;99.90
32348;DHT22;18821;44.800;10.326;2022-12-20T02:59:56;5.90;99.90
32348;DHT22;18821;44.800;10.326;2022-12-20T03:02:24;5.90;99.90
32348;DHT22;18821;44.800;10.326;2022-12-20T03:04:50;5.90;99.90
32348;DHT22;18821;44.800;10.326;2022-12-20T03:07:17;5.80;99.90
32348;DHT22;18821;44.800;10.326;2022-12-20T03:09:44;5.60;99.90
32348;DHT22;18821;44.800;10.326;2022-12-20T03:12:13;5.70;99.90
32348;DHT22;18821;44.800;10.326;2022-12-20T03:14:41;5.60;99.90
32348;DHT22;18821;44.800;10.326;2022-12-20T03:17:09;5.70;99.90
32348;DHT22;18821;44.800;10.326;2022-12-20T03:19:37;5.70;99.90
32348;DHT22;18821;44.800;10.326;2022-12-20T03:22:05;5.50;99.90
32348;DHT22;18821;44.800;10.326;2022-12-20T03:24:31;5.50;99.90
32348;DHT22;18821;44.800;10.326;2022-12-20T03:26:58;5.50;99.90
32348;DHT22;18821;44.800;10.326;2022-12-20T03:29:24;5.60;99.90
32348;DHT22;18821;44.800;10.326;2022-12-20T03:31:51;5.50;99.90
32348;DHT22;18821;44.800;10.326;2022-12-20T03:34:17;5.50;99.90
32348;DHT22;18821;44.800;10.326;2022-12-20T03:36:43;5.60;99.90
32348;DHT22;18821;44.800;10.326;2022-12-20T03:39:09;5.60;99.90
32348;DHT22;18821;44.800;10.326;2022-12-20T03:41:37;5.50;99.90
32348;DHT22;18821;44.800;10.326;2022-12-20T03:44:05;5.50;99.90
32348;DHT22;18821;44.800;10.326;2022-12-20T03:46:31;5.50;99.90
32348;DHT22;18821;44.800;10.326;2022-12-20T03:48:56;5.50;99.90
32348;DHT22;18821;44.800;10.326;2022-12-20T03:51:23;5.50;99.90
32348;DHT22;18821;44.800;10.326;2022-12-20T03:53:49;5.50;99.90
32348;DHT22;18821;44.800;10.326;2022-12-20T03:56:16;5.60;99.90
32348;DHT22;18821;44.800;10.326;2022-12-20T03:58:44;5.60;99.90
32348;DHT22;18821;44.800;10.326;2022-12-20T04:01:23;5.60;99.90
32348;DHT22;18821;44.800;10.326;2022-12-20T04:03:50;5.70;99.90
32348;DHT22;18821;44.800;10.326;2022-12-20T04:06:16;5.80;99.90
32348;DHT22;18821;44.800;10.326;2022-12-20T04:08:43;5.80;99.90
32348;DHT22;18821;44.800;10.326;2022-12-20T04:11:12;5.80;99.90
32348;DHT22;18821;44.800;10.326;2022-12-20T04:14:09;5.80;99.90
32348;DHT22;18821;44.800;10.326;2022-12-20T04:16:36;5.70;99.90
32348;DHT22;18821;44.800;10.326;2022-12-20T04:19:02;5.80;99.90
32348;DHT22;18821;44.800;10.326;2022-12-20T04:21:34;5.80;99.90
32348;DHT22;18821;44.800;10.326;2022-12-20T04:24:03;5.70;99.90
32348;DHT22;18821;44.800;10.326;2022-12-20T04:26:43;5.70;99.90
32348;DHT22;18821;44.800;10.326;2022-12-20T04:29:11;5.80;99.90
32348;DHT22;18821;44.800;10.326;2022-12-20T04:31:39;5.80;99.90
32348;DHT22;18821;44.800;10.326;2022-12-20T04:34:05;5.80;99.90
32348;DHT22;18821;44.800;10.326;2022-12-20T04:36:33;5.80;99.90
32348;DHT22;18821;44.800;10.326;2022-12-20T04:39:02;5.80;99.90
32348;DHT22;18821;44.800;10.326;2022-12-20T04:41:34;5.90;99.90
32348;DHT22;18821;44.800;10.326;2022-12-20T04:44:07;5.90;99.90
32348;DHT22;18821;44.800;10.326;2022-12-20T04:46:36;5.90;99.90
32348;DHT22;18821;44.800;10.326;2022-12-20T04:49:03;6.00;99.90
32348;DHT22;18821;44.800;10.326;2022-12-20T04:51:32;6.00;99.90
32348;DHT22;18821;44.800;10.326;2022-12-20T04:53:58;6.00;99.90
32348;DHT22;18821;44.800;10.326;2022-12-20T04:56:33;6.00;99.90
32348;DHT22;18821;44.800;10.326;2022-12-20T04:59:05;6.00;99.90
32348;DHT22;18821;44.800;10.326;2022-12-20T05:01:30;6.00;99.90
32348;DHT22;18821;44.800;10.326;2022-12-20T05:03:56;5.80;99.90
32348;DHT22;18821;44.800;10.326;2022-12-20T05:06:25;5.90;99.90
32348;DHT22;18821;44.800;10.326;2022-12-20T05:08:51;6.00;99.90
32348;DHT22;18821;44.800;10.326;2022-12-20T05:11:17;6.00;99.90
32348;DHT22;18821;44.800;10.326;2022-12-20T05:13:43;6.00;99.90
32348;DHT22;18821;44.800;10.326;2022-12-20T05:16:09;6.00;99.90
32348;DHT22;18821;44.800;10.326;2022-12-20T05:18:35;6.00;99.90
32348;DHT22;18821;44.800;10.326;2022-12-20T05:21:05;6.10;99.90
32348;DHT22;18821;44.800;10.326;2022-12-20T05:24:10;6.10;99.90
32348;DHT22;18821;44.800;10.326;2022-12-20T05:27:01;6.00;99.90
32348;DHT22;18821;44.800;10.326;2022-12-20T05:29:28;6.00;99.90
32348;DHT22;18821;44.800;10.326;2022-12-20T05:31:54;6.00;99.90
32348;DHT22;18821;44.800;10.326;2022-12-20T05:34:21;6.10;99.90
32348;DHT22;18821;44.800;10.326;2022-12-20T05:36:52;6.10;99.90
32348;DHT22;18821;44.800;10.326;2022-12-20T05:39:20;6.20;99.90
32348;DHT22;18821;44.800;10.326;2022-12-20T05:41:48;6.20;99.90
32348;DHT22;18821;44.800;10.326;2022-12-20T05:44:15;6.10;99.90
32348;DHT22;18821;44.800;10.326;2022-12-20T05:46:45;6.10;99.90
32348;DHT22;18821;44.800;10.326;2022-12-20T05:49:16;6.10;99.90
32348;DHT22;18821;44.800;10.326;2022-12-20T05:51:43;6.00;99.90
32348;DHT22;18821;44.800;10.326;2022-12-20T05:54:23;6.00;99.90
32348;DHT22;18821;44.800;10.326;2022-12-20T05:57:02;6.00;99.90
32348;DHT22;18821;44.800;10.326;2022-12-20T05:59:36;6.00;99.90
32348;DHT22;18821;44.800;10.326;2022-12-20T06:02:04;6.00;99.90
32348;DHT22;18821;44.800;10.326;2022-12-20T06:04:32;5.80;99.90
32348;DHT22;18821;44.800;10.326;2022-12-20T06:07:02;5.90;99.90
32348;DHT22;18821;44.800;10.326;2022-12-20T06:09:28;5.90;99.90
32348;DHT22;18821;44.800;10.326;2022-12-20T06:12:05;5.90;99.90
32348;DHT22;18821;44.800;10.326;2022-12-20T06:14:33;5.90;99.90
32348;DHT22;18821;44.800;10.326;2022-12-20T06:17:00;6.00;99.90
32348;DHT22;18821;44.800;10.326;2022-12-20T06:19:26;6.10;99.90
32348;DHT22;18821;44.800;10.326;2022-12-20T06:21:55;6.10;99.90
32348;DHT22;18821;44.800;10.326;2022-12-20T06:24:44;6.20;99.90
32348;DHT22;18821;44.800;10.326;2022-12-20T06:27:10;6.20;99.90
32348;DHT22;18821;44.800;10.326;2022-12-20T06:29:37;6.20;99.90
32348;DHT22;18821;44.800;10.326;2022-12-20T06:32:08;6.10;99.90
32348;DHT22;18821;44.800;10.326;2022-12-20T06:34:34;6.10;99.90
32348;DHT22;18821;44.800;10.326;2022-12-20T06:37:01;6.10;99.90
32348;DHT22;18821;44.800;10.326;2022-12-20T06:39:30;6.10;99.90
32348;DHT22;18821;44.800;10.326;2022-12-20T06:42:01;6.20;99.90
32348;DHT22;18821;44.800;10.326;2022-12-20T06:44:27;6.30;99.90
32348;DHT22;18821;44.800;10.326;2022-12-20T06:46:53;6.20;99.90
32348;DHT22;18821;44.800;10.326;2022-12-20T06:49:19;6.10;99.90
32348;DHT22;18821;44.800;10.326;2022-12-20T06:51:47;6.10;99.90
32348;DHT22;18821;44.800;10.326;2022-12-20T06:54:14;6.00;99.90
32348;DHT22;18821;44.800;10.326;2022-12-20T06:56:40;6.00;99.90
32348;DHT22;18821;44.800;10.326;2022-12-20T06:59:08;5.90;99.90
32348;DHT22;18821;44.800;10.326;2022-12-20T07:01:34;5.90;99.90
32348;DHT22;18821;44.800;10.326;2022-12-20T07:04:00;6.00;99.90
32348;DHT22;18821;44.800;10.326;2022-12-20T07:06:26;5.90;99.90
32348;DHT22;18821;44.800;10.326;2022-12-20T07:08:54;5.80;99.90
32348;DHT22;18821;44.800;10.326;2022-12-20T07:11:20;5.90;99.90
32348;DHT22;18821;44.800;10.326;2022-12-20T07:13:46;5.80;99.90
32348;DHT22;18821;44.800;10.326;2022-12-20T07:16:12;5.90;99.90
32348;DHT22;18821;44.800;10.326;2022-12-20T07:18:39;5.90;99.90
32348;DHT22;18821;44.800;10.326;2022-12-20T07:21:05;5.90;99.90
32348;DHT22;18821;44.800;10.326;2022-12-20T07:23:32;5.90;99.90
32348;DHT22;18821;44.800;10.326;2022-12-20T07:25:59;6.00;99.90
32348;DHT22;18821;44.800;10.326;2022-12-20T07:28:27;5.90;99.90
32348;DHT22;18821;44.800;10.326;2022-12-20T07:30:53;5.90;99.90
32348;DHT22;18821;44.800;10.326;2022-12-20T07:33:20;5.80;99.90
32348;DHT22;18821;44.800;10.326;2022-12-20T07:35:46;5.80;99.90
32348;DHT22;18821;44.800;10.326;2022-12-20T07:38:12;5.80;99.90
32348;DHT22;18821;44.800;10.326;2022-12-20T07:40:42;5.80;99.90
32348;DHT22;18821;44.800;10.326;2022-12-20T07:43:08;5.80;99.90
32348;DHT22;18821;44.800;10.326;2022-12-20T07:45:35;5.80;99.90
32348;DHT22;18821;44.800;10.326;2022-12-20T07:48:03;5.80;99.90
32348;DHT22;18821;44.800;10.326;2022-12-20T07:50:30;5.90;99.90
32348;DHT22;18821;44.800;10.326;2022-12-20T07:52:57;5.80;99.90
32348;DHT22;18821;44.800;10.326;2022-12-20T07:55:24;5.80;99.90
32348;DHT22;18821;44.800;10.326;2022-12-20T07:57:54;5.90;99.90
32348;DHT22;18821;44.800;10.326;2022-12-20T08:00:22;5.80;99.90
32348;DHT22;18821;44.800;10.326;2022-12-20T08:02:54;5.90;99.90
32348;DHT22;18821;44.800;10.326;2022-12-20T08:05:23;5.90;99.90
32348;DHT22;18821;44.800;10.326;2022-12-20T08:07:51;5.90;99.90
32348;DHT22;18821;44.800;10.326;2022-12-20T08:10:19;5.80;99.90
32348;DHT22;18821;44.800;10.326;2022-12-20T08:12:47;5.90;99.90
32348;DHT22;18821;44.800;10.326;2022-12-20T08:15:14;5.90;99.90
32348;DHT22;18821;44.800;10.326;2022-12-20T08:17:40;5.90;99.90
32348;DHT22;18821;44.800;10.326;2022-12-20T08:20:06;5.90;99.90
32348;DHT22;18821;44.800;10.326;2022-12-20T08:22:33;6.00;99.90
32348;DHT22;18821;44.800;10.326;2022-12-20T08:25:00;5.90;99.90
32348;DHT22;18821;44.800;10.326;2022-12-20T08:27:26;6.00;99.90
32348;DHT22;18821;44.800;10.326;2022-12-20T08:29:51;6.00;99.90
32348;DHT22;18821;44.800;10.326;2022-12-20T08:32:17;6.00;99.90
32348;DHT22;18821;44.800;10.326;2022-12-20T08:34:43;6.00;99.90
32348;DHT22;18821;44.800;10.326;2022-12-20T08:37:10;6.00;99.90
32348;DHT22;18821;44.800;10.326;2022-12-20T08:39:36;5.90;99.90
32348;DHT22;18821;44.800;10.326;2022-12-20T08:42:04;5.90;99.90
32348;DHT22;18821;44.800;10.326;2022-12-20T08:44:30;6.00;99.90
32348;DHT22;18821;44.800;10.326;2022-12-20T08:46:56;6.00;99.90
32348;DHT22;18821;44.800;10.326;2022-12-20T08:49:25;6.00;99.90
32348;DHT22;18821;44.800;10.326;2022-12-20T08:51:50;5.90;99.90
32348;DHT22;18821;44.800;10.326;2022-12-20T08:54:16;6.00;99.90
32348;DHT22;18821;44.800;10.326;2022-12-20T08:56:42;6.10;99.90
32348;DHT22;18821;44.800;10.326;2022-12-20T08:59:08;6.10;99.90
32348;DHT22;18821;44.800;10.326;2022-12-20T09:01:34;6.10;99.90
32348;DHT22;18821;44.800;10.326;2022-12-20T09:04:00;6.10;99.90
32348;DHT22;18821;44.800;10.326;2022-12-20T09:06:26;6.20;99.90
32348;DHT22;18821;44.800;10.326;2022-12-20T09:08:52;6.10;99.90
32348;DHT22;18821;44.800;10.326;2022-12-20T09:11:20;6.20;99.90
32348;DHT22;18821;44.800;10.326;2022-12-20T09:13:49;6.20;99.90
32348;DHT22;18821;44.800;10.326;2022-12-20T09:16:18;6.30;99.90
32348;DHT22;18821;44.800;10.326;2022-12-20T09:18:47;6.20;99.90
32348;DHT22;18821;44.800;10.326;2022-12-20T09:21:15;6.30;99.90
32348;DHT22;18821;44.800;10.326;2022-12-20T09:23:42;6.30;99.90
32348;DHT22;18821;44.800;10.326;2022-12-20T09:26:11;6.40;99.90
32348;DHT22;18821;44.800;10.326;2022-12-20T09:28:38;6.40;99.90
32348;DHT22;18821;44.800;10.326;2022-12-20T09:31:07;6.40;99.90
32348;DHT22;18821;44.800;10.326;2022-12-20T09:33:34;6.50;99.90
32348;DHT22;18821;44.800;10.326;2022-12-20T09:36:01;6.70;99.90
32348;DHT22;18821;44.800;10.326;2022-12-20T09:38:30;6.80;99.90
32348;DHT22;18821;44.800;10.326;2022-12-20T09:41:04;6.90;99.90
32348;DHT22;18821;44.800;10.326;2022-12-20T09:43:32;7.10;99.90
32348;DHT22;18821;44.800;10.326;2022-12-20T09:46:02;7.10;99.90
32348;DHT22;18821;44.800;10.326;2022-12-20T09:48:37;7.10;99.90
32348;DHT22;18821;44.800;10.326;2022-12-20T09:56:17;6.90;99.90
32348;DHT22;18821;44.800;10.326;2022-12-20T10:01:29;7.10;99.90
32348;DHT22;18821;44.800;10.326;2022-12-20T10:03:57;7.10;99.90
32348;DHT22;18821;44.800;10.326;2022-12-20T10:09:01;7.10;99.90
32348;DHT22;18821;44.800;10.326;2022-12-20T10:16:54;7.20;99.90
32348;DHT22;18821;44.800;10.326;2022-12-20T10:19:29;7.30;99.90
32348;DHT22;18821;44.800;10.326;2022-12-20T10:25:19;7.40;99.90
32348;DHT22;18821;44.800;10.326;2022-12-20T10:27:46;7.30;99.90
32348;DHT22;18821;44.800;10.326;2022-12-20T10:30:17;7.30;99.90
32348;DHT22;18821;44.800;10.326;2022-12-20T10:32:52;7.20;99.90
32348;DHT22;18821;44.800;10.326;2022-12-20T10:35:38;7.00;99.90
32348;DHT22;18821;44.800;10.326;2022-12-20T10:38:07;6.90;99.90
32348;DHT22;18821;44.800;10.326;2022-12-20T10:40:40;6.80;99.90
32348;DHT22;18821;44.800;10.326;2022-12-20T10:43:17;6.80;99.90
32348;DHT22;18821;44.800;10.326;2022-12-20T10:45:54;6.80;99.90
32348;DHT22;18821;44.800;10.326;2022-12-20T10:48:32;6.70;99.90
32348;DHT22;18821;44.800;10.326;2022-12-20T10:54:19;6.60;99.90
32348;DHT22;18821;44.800;10.326;2022-12-20T11:01:30;6.70;99.90
32348;DHT22;18821;44.800;10.326;2022-12-20T11:04:19;6.70;99.90
32348;DHT22;18821;44.800;10.326;2022-12-20T11:06:46;6.70;99.90
32348;DHT22;18821;44.800;10.326;2022-12-20T11:09:34;6.70;99.90
32348;DHT22;18821;44.800;10.326;2022-12-20T11:12:20;6.70;99.90
32348;DHT22;18821;44.800;10.326;2022-12-20T11:14:46;6.70;99.90
32348;DHT22;18821;44.800;10.326;2022-12-20T11:17:35;6.60;99.90
32348;DHT22;18821;44.800;10.326;2022-12-20T11:28:28;6.80;99.90
32348;DHT22;18821;44.800;10.326;2022-12-20T11:33:51;6.80;99.90
32348;DHT22;18821;44.800;10.326;2022-12-20T11:42:05;7.00;99.90
32348;DHT22;18821;44.800;10.326;2022-12-20T11:53:49;6.80;99.90
32348;DHT22;18821;44.800;10.326;2022-12-20T11:56:00;6.70;99.90
32348;DHT22;18821;44.800;10.326;2022-12-20T11:58:43;6.70;99.90
32348;DHT22;18821;44.800;10.326;2022-12-20T12:01:13;6.80;99.90
32348;DHT22;18821;44.800;10.326;2022-12-20T12:03:53;6.80;99.90
32348;DHT22;18821;44.800;10.326;2022-12-20T12:06:28;6.80;99.90
32348;DHT22;18821;44.800;10.326;2022-12-20T12:11:44;6.80;99.90
32348;DHT22;18821;44.800;10.326;2022-12-20T12:14:28;6.80;99.90
32348;DHT22;18821;44.800;10.326;2022-12-20T12:16:58;6.80;99.90
32348;DHT22;18821;44.800;10.326;2022-12-20T12:19:29;6.90;99.90
32348;DHT22;18821;44.800;10.326;2022-12-20T12:22:04;7.10;99.90
32348;DHT22;18821;44.800;10.326;2022-12-20T12:24:42;7.10;99.90
32348;DHT22;18821;44.800;10.326;2022-12-20T12:27:21;7.00;99.90
32348;DHT22;18821;44.800;10.326;2022-12-20T12:29:48;7.00;99.90
32348;DHT22;18821;44.800;10.326;2022-12-20T12:32:21;7.00;99.90
32348;DHT22;18821;44.800;10.326;2022-12-20T12:38:29;7.00;99.90
32348;DHT22;18821;44.800;10.326;2022-12-20T12:46:33;6.90;99.90
32348;DHT22;18821;44.800;10.326;2022-12-20T12:49:10;6.90;99.90
32348;DHT22;18821;44.800;10.326;2022-12-20T12:51:41;6.90;99.90
32348;DHT22;18821;44.800;10.326;2022-12-20T12:56:49;6.80;99.90
32348;DHT22;18821;44.800;10.326;2022-12-20T13:01:46;6.80;99.90
32348;DHT22;18821;44.800;10.326;2022-12-20T13:11:54;6.90;99.90
32348;DHT22;18821;44.800;10.326;2022-12-20T13:27:01;7.10;99.90
32348;DHT22;18821;44.800;10.326;2022-12-20T13:29:33;7.10;99.90
32348;DHT22;18821;44.800;10.326;2022-12-20T13:32:00;7.10;99.90
32348;DHT22;18821;44.800;10.326;2022-12-20T13:34:41;7.00;99.90
32348;DHT22;18821;44.800;10.326;2022-12-20T13:37:28;6.90;99.90
32348;DHT22;18821;44.800;10.326;2022-12-20T13:40:20;6.90;99.90
32348;DHT22;18821;44.800;10.326;2022-12-20T13:42:51;6.90;99.90
32348;DHT22;18821;44.800;10.326;2022-12-20T13:45:19;7.00;99.90
32348;DHT22;18821;44.800;10.326;2022-12-20T13:47:55;7.00;99.90
32348;DHT22;18821;44.800;10.326;2022-12-20T13:50:32;7.00;99.90
32348;DHT22;18821;44.800;10.326;2022-12-20T13:53:02;7.10;99.90
32348;DHT22;18821;44.800;10.326;2022-12-20T13:55:38;7.10;99.90
32348;DHT22;18821;44.800;10.326;2022-12-20T13:58:20;7.10;99.90
32348;DHT22;18821;44.800;10.326;2022-12-20T14:00:47;7.20;99.90
32348;DHT22;18821;44.800;10.326;2022-12-20T14:03:27;7.20;99.90
32348;DHT22;18821;44.800;10.326;2022-12-20T14:06:08;7.20;99.90
32348;DHT22;18821;44.800;10.326;2022-12-20T14:08:40;7.30;99.90
32348;DHT22;18821;44.800;10.326;2022-12-20T14:11:20;7.30;99.90
32348;DHT22;18821;44.800;10.326;2022-12-20T14:13:56;7.40;99.90
32348;DHT22;18821;44.800;10.326;2022-12-20T14:16:24;7.40;99.90
32348;DHT22;18821;44.800;10.326;2022-12-20T14:19:00;7.40;99.90
32348;DHT22;18821;44.800;10.326;2022-12-20T14:21:29;7.50;99.90
32348;DHT22;18821;44.800;10.326;2022-12-20T14:23:57;7.50;99.90
32348;DHT22;18821;44.800;10.326;2022-12-20T14:26:32;7.60;99.90
32348;DHT22;18821;44.800;10.326;2022-12-20T14:29:01;7.60;99.90
32348;DHT22;18821;44.800;10.326;2022-12-20T14:31:41;7.60;99.90
32348;DHT22;18821;44.800;10.326;2022-12-20T14:36:36;7.60;99.90
32348;DHT22;18821;44.800;10.326;2022-12-20T14:41:55;7.60;99.90
32348;DHT22;18821;44.800;10.326;2022-12-20T14:44:23;7.60;99.90
32348;DHT22;18821;44.800;10.326;2022-12-20T14:46:52;7.60;99.90
32348;DHT22;18821;44.800;10.326;2022-12-20T14:49:26;7.50;99.90
32348;DHT22;18821;44.800;10.326;2022-12-20T14:52:29;7.60;99.90
32348;DHT22;18821;44.800;10.326;2022-12-20T14:55:06;7.40;99.90
32348;DHT22;18821;44.800;10.326;2022-12-20T15:00:11;7.20;99.90
32348;DHT22;18821;44.800;10.326;2022-12-20T15:08:13;7.30;99.90
32348;DHT22;18821;44.800;10.326;2022-12-20T15:11:31;7.30;99.90
32348;DHT22;18821;44.800;10.326;2022-12-20T15:13:35;7.30;99.90
32348;DHT22;18821;44.800;10.326;2022-12-20T15:16:04;7.30;99.90
32348;DHT22;18821;44.800;10.326;2022-12-20T15:18:31;7.20;99.90
32348;DHT22;18821;44.800;10.326;2022-12-20T15:21:14;7.00;99.90
32348;DHT22;18821;44.800;10.326;2022-12-20T15:23:46;7.00;99.90
32348;DHT22;18821;44.800;10.326;2022-12-20T15:26:18;6.90;99.90
32348;DHT22;18821;44.800;10.326;2022-12-20T15:28:44;6.90;99.90
32348;DHT22;18821;44.800;10.326;2022-12-20T15:31:16;6.80;99.90
32348;DHT22;18821;44.800;10.326;2022-12-20T15:33:43;6.80;99.90
32348;DHT22;18821;44.800;10.326;2022-12-20T15:36:24;6.80;99.90
32348;DHT22;18821;44.800;10.326;2022-12-20T15:38:52;6.70;99.90
32348;DHT22;18821;44.800;10.326;2022-12-20T15:41:32;6.70;99.90
32348;DHT22;18821;44.800;10.326;2022-12-20T15:44:06;6.70;99.90
32348;DHT22;18821;44.800;10.326;2022-12-20T15:46:35;6.70;99.90
32348;DHT22;18821;44.800;10.326;2022-12-20T15:49:01;6.70;99.90
32348;DHT22;18821;44.800;10.326;2022-12-20T15:51:31;6.80;99.90
32348;DHT22;18821;44.800;10.326;2022-12-20T15:53:58;6.80;99.90
32348;DHT22;18821;44.800;10.326;2022-12-20T15:56:26;6.80;99.90
32348;DHT22;18821;44.800;10.326;2022-12-20T15:58:53;6.80;99.90
32348;DHT22;18821;44.800;10.326;2022-12-20T16:01:30;6.80;99.90
32348;DHT22;18821;44.800;10.326;2022-12-20T16:03:57;6.70;99.90
32348;DHT22;18821;44.800;10.326;2022-12-20T16:06:23;6.70;99.90
32348;DHT22;18821;44.800;10.326;2022-12-20T16:08:48;6.80;99.90
32348;DHT22;18821;44.800;10.326;2022-12-20T16:11:28;6.80;99.90
32348;DHT22;18821;44.800;10.326;2022-12-20T16:13:55;6.90;99.90
32348;DHT22;18821;44.800;10.326;2022-12-20T16:16:24;6.80;99.90
32348;DHT22;18821;44.800;10.326;2022-12-20T16:18:50;6.90;99.90
32348;DHT22;18821;44.800;10.326;2022-12-20T16:21:21;6.90;99.90
32348;DHT22;18821;44.800;10.326;2022-12-20T16:23:48;6.80;99.90
32348;DHT22;18821;44.800;10.326;2022-12-20T16:26:22;6.90;99.90
32348;DHT22;18821;44.800;10.326;2022-12-20T16:28:52;6.90;99.90
32348;DHT22;18821;44.800;10.326;2022-12-20T16:31:30;6.80;99.90
32348;DHT22;18821;44.800;10.326;2022-12-20T16:33:57;6.90;99.90
32348;DHT22;18821;44.800;10.326;2022-12-20T16:36:23;6.80;99.90
32348;DHT22;18821;44.800;10.326;2022-12-20T16:38:51;6.90;99.90
32348;DHT22;18821;44.800;10.326;2022-12-20T16:41:21;6.80;99.90
32348;DHT22;18821;44.800;10.326;2022-12-20T16:43:48;6.70;99.90
32348;DHT22;18821;44.800;10.326;2022-12-20T16:46:24;6.70;99.90
32348;DHT22;18821;44.800;10.326;2022-12-20T16:48:52;6.70;99.90
32348;DHT22;18821;44.800;10.326;2022-12-20T16:51:33;6.80;99.90
32348;DHT22;18821;44.800;10.326;2022-12-20T16:54:18;6.80;99.90
32348;DHT22;18821;44.800;10.326;2022-12-20T16:56:45;6.70;99.90
32348;DHT22;18821;44.800;10.326;2022-12-20T16:59:29;6.70;99.90
32348;DHT22;18821;44.800;10.326;2022-12-20T17:01:56;6.70;99.90
32348;DHT22;18821;44.800;10.326;2022-12-20T17:04:23;6.70;99.90
32348;DHT22;18821;44.800;10.326;2022-12-20T17:06:49;6.70;99.90
32348;DHT22;18821;44.800;10.326;2022-12-20T17:09:16;6.70;99.90
32348;DHT22;18821;44.800;10.326;2022-12-20T17:11:42;6.70;99.90
32348;DHT22;18821;44.800;10.326;2022-12-20T17:14:11;6.70;99.90
32348;DHT22;18821;44.800;10.326;2022-12-20T17:16:37;6.70;99.90
32348;DHT22;18821;44.800;10.326;2022-12-20T17:19:03;6.70;99.90
32348;DHT22;18821;44.800;10.326;2022-12-20T17:21:34;6.70;99.90
32348;DHT22;18821;44.800;10.326;2022-12-20T17:24:01;6.70;99.90
32348;DHT22;18821;44.800;10.326;2022-12-20T17:26:29;6.80;99.90
32348;DHT22;18821;44.800;10.326;2022-12-20T17:28:56;6.90;99.90
32348;DHT22;18821;44.800;10.326;2022-12-20T17:31:29;6.90;99.90
32348;DHT22;18821;44.800;10.326;2022-12-20T17:33:57;6.90;99.90
32348;DHT22;18821;44.800;10.326;2022-12-20T17:36:23;7.00;99.90
32348;DHT22;18821;44.800;10.326;2022-12-20T17:38:57;7.00;99.90
32348;DHT22;18821;44.800;10.326;2022-12-20T17:41:26;7.00;99.90
32348;DHT22;18821;44.800;10.326;2022-12-20T17:43:54;7.00;99.90
32348;DHT22;18821;44.800;10.326;2022-12-20T17:46:20;7.00;99.90
32348;DHT22;18821;44.800;10.326;2022-12-20T17:48:47;6.90;99.90
32348;DHT22;18821;44.800;10.326;2022-12-20T17:51:32;6.90;99.90